sensor_id;sensor_type;location;lat;lon;timestamp;pressure;altitude;pressure_sealevel;temperature;humidity
69570;BME280;56781;42.292;23.146;2023-04-08T00:01:10;95632.31;;;3.47;99.18
69570;BME280;56781;42.292;23.146;2023-04-08T00:03:37;95620.94;;;3.46;99.88
69570;BME280;56781;42.292;23.146;2023-04-08T00:06:05;95621.78;;;3.52;99.19
69570;BME280;56781;42.292;23.146;2023-04-08T00:08:32;95621.81;;;3.57;97.26
69570;BME280;56781;42.292;23.146;2023-04-08T00:10:59;95637.00;;;3.67;96.99
69570;BME280;56781;42.292;23.146;2023-04-08T00:13:26;95627.50;;;3.71;97.06
69570;BME280;56781;42.292;23.146;2023-04-08T00:15:53;95627.56;;;3.81;96.20
69570;BME280;56781;42.292;23.146;2023-04-08T00:18:20;95631.28;;;3.85;95.70
69570;BME280;56781;42.292;23.146;2023-04-08T00:20:47;95631.88;;;3.92;94.77
69570;BME280;56781;42.292;23.146;2023-04-08T00:23:15;95619.75;;;3.96;93.14
69570;BME280;56781;42.292;23.146;2023-04-08T00:25:42;95634.06;;;4.00;91.96
69570;BME280;56781;42.292;23.146;2023-04-08T00:28:09;95637.25;;;4.03;91.37
69570;BME280;56781;42.292;23.146;2023-04-08T00:30:36;95617.56;;;3.93;90.30
69570;BME280;56781;42.292;23.146;2023-04-08T00:33:04;95632.81;;;4.13;90.69
69570;BME280;56781;42.292;23.146;2023-04-08T00:35:31;95644.22;;;4.14;89.84
69570;BME280;56781;42.292;23.146;2023-04-08T00:37:58;95647.91;;;4.18;89.35
69570;BME280;56781;42.292;23.146;2023-04-08T00:40:25;95606.47;;;3.91;88.59
69570;BME280;56781;42.292;23.146;2023-04-08T00:42:52;95608.56;;;3.89;88.53
69570;BME280;56781;42.292;23.146;2023-04-08T00:45:19;95614.91;;;3.88;89.05
69570;BME280;56781;42.292;23.146;2023-04-08T00:47:47;95629.78;;;3.94;88.58
69570;BME280;56781;42.292;23.146;2023-04-08T00:50:18;95639.88;;;3.97;88.53
69570;BME280;56781;42.292;23.146;2023-04-08T00:52:46;95634.56;;;3.97;87.06
69570;BME280;56781;42.292;23.146;2023-04-08T00:55:13;95626.09;;;4.00;86.77
69570;BME280;56781;42.292;23.146;2023-04-08T00:57:40;95619.75;;;4.02;86.54
69570;BME280;56781;42.292;23.146;2023-04-08T01:00:08;95617.09;;;3.96;86.29
69570;BME280;56781;42.292;23.146;2023-04-08T01:03:57;95651.88;;;4.10;86.91
69570;BME280;56781;42.292;23.146;2023-04-08T01:08:36;95628.25;;;4.04;86.50
69570;BME280;56781;42.292;23.146;2023-04-08T01:11:09;95629.00;;;3.94;86.69
69570;BME280;56781;42.292;23.146;2023-04-08T01:13:39;95637.94;;;3.88;87.26
69570;BME280;56781;42.292;23.146;2023-04-08T01:16:10;95642.44;;;3.87;87.42
69570;BME280;56781;42.292;23.146;2023-04-08T01:18:40;95667.25;;;4.13;88.97
69570;BME280;56781;42.292;23.146;2023-04-08T01:21:10;95631.06;;;3.87;88.41
69570;BME280;56781;42.292;23.146;2023-04-08T01:23:45;95647.25;;;3.95;88.07
69570;BME280;56781;42.292;23.146;2023-04-08T01:26:23;95643.19;;;3.77;89.21
69570;BME280;56781;42.292;23.146;2023-04-08T01:28:54;95654.00;;;3.76;88.47
69570;BME280;56781;42.292;23.146;2023-04-08T01:31:23;95655.34;;;3.78;88.20
69570;BME280;56781;42.292;23.146;2023-04-08T01:33:51;95660.47;;;3.90;87.98
69570;BME280;56781;42.292;23.146;2023-04-08T01:36:19;95650.88;;;3.84;87.66
69570;BME280;56781;42.292;23.146;2023-04-08T01:38:48;95659.25;;;3.71;89.13
69570;BME280;56781;42.292;23.146;2023-04-08T01:41:16;95667.28;;;3.81;89.09
69570;BME280;56781;42.292;23.146;2023-04-08T01:43:44;95662.28;;;3.85;88.02
69570;BME280;56781;42.292;23.146;2023-04-08T01:46:12;95678.00;;;3.96;87.46
69570;BME280;56781;42.292;23.146;2023-04-08T01:48:40;95667.13;;;3.98;87.08
69570;BME280;56781;42.292;23.146;2023-04-08T01:51:08;95675.97;;;4.09;86.54
69570;BME280;56781;42.292;23.146;2023-04-08T01:53:35;95667.94;;;3.98;86.94
69570;BME280;56781;42.292;23.146;2023-04-08T01:56:06;95670.53;;;3.93;86.87
69570;BME280;56781;42.292;23.146;2023-04-08T01:58:55;95681.53;;;4.07;87.23
69570;BME280;56781;42.292;23.146;2023-04-08T02:01:26;95671.59;;;3.92;86.95
69570;BME280;56781;42.292;23.146;2023-04-08T02:03:55;95672.44;;;3.66;88.08
69570;BME280;56781;42.292;23.146;2023-04-08T02:06:25;95691.28;;;3.69;89.95
69570;BME280;56781;42.292;23.146;2023-04-08T02:08:53;95671.22;;;3.46;92.34
69570;BME280;56781;42.292;23.146;2023-04-08T02:11:21;95679.63;;;3.38;92.30
69570;BME280;56781;42.292;23.146;2023-04-08T02:13:48;95673.38;;;3.49;91.53
69570;BME280;56781;42.292;23.146;2023-04-08T02:16:22;95708.97;;;3.64;91.84
69570;BME280;56781;42.292;23.146;2023-04-08T02:19:13;95683.09;;;3.44;93.81
69570;BME280;56781;42.292;23.146;2023-04-08T02:21:46;95703.97;;;3.40;96.47
69570;BME280;56781;42.292;23.146;2023-04-08T02:24:16;95676.22;;;3.16;97.54
69570;BME280;56781;42.292;23.146;2023-04-08T02:26:44;95702.28;;;3.29;98.33
69570;BME280;56781;42.292;23.146;2023-04-08T02:29:15;95687.75;;;3.04;99.53
69570;BME280;56781;42.292;23.146;2023-04-08T02:31:44;95678.06;;;2.93;100.00
69570;BME280;56781;42.292;23.146;2023-04-08T02:34:13;95681.28;;;2.95;100.00
69570;BME280;56781;42.292;23.146;2023-04-08T02:36:42;95686.88;;;2.99;100.00
69570;BME280;56781;42.292;23.146;2023-04-08T02:39:11;95691.34;;;2.98;100.00
69570;BME280;56781;42.292;23.146;2023-04-08T02:41:38;95674.09;;;2.91;100.00
69570;BME280;56781;42.292;23.146;2023-04-08T02:44:06;95678.41;;;2.97;100.00
69570;BME280;56781;42.292;23.146;2023-04-08T02:46:33;95680.69;;;2.88;100.00
69570;BME280;56781;42.292;23.146;2023-04-08T02:49:00;95679.25;;;2.80;100.00
69570;BME280;56781;42.292;23.146;2023-04-08T02:51:27;95704.19;;;3.11;100.00
69570;BME280;56781;42.292;23.146;2023-04-08T02:53:54;95671.47;;;2.91;100.00
69570;BME280;56781;42.292;23.146;2023-04-08T02:56:21;95674.13;;;2.96;100.00
69570;BME280;56781;42.292;23.146;2023-04-08T02:58:48;95677.97;;;2.83;100.00
69570;BME280;56781;42.292;23.146;2023-04-08T03:01:17;95672.69;;;2.83;100.00
69570;BME280;56781;42.292;23.146;2023-04-08T03:03:45;95667.91;;;2.80;100.00
69570;BME280;56781;42.292;23.146;2023-04-08T03:06:12;95665.69;;;2.72;100.00
69570;BME280;56781;42.292;23.146;2023-04-08T03:08:39;95683.06;;;2.89;100.00
69570;BME280;56781;42.292;23.146;2023-04-08T03:11:06;95682.28;;;2.89;100.00
69570;BME280;56781;42.292;23.146;2023-04-08T03:13:33;95681.47;;;2.88;100.00
69570;BME280;56781;42.292;23.146;2023-04-08T03:16:01;95652.50;;;2.77;100.00
69570;BME280;56781;42.292;23.146;2023-04-08T03:18:28;95648.34;;;2.81;100.00
69570;BME280;56781;42.292;23.146;2023-04-08T03:20:55;95667.25;;;2.95;100.00
69570;BME280;56781;42.292;23.146;2023-04-08T03:23:23;95684.66;;;3.13;100.00
69570;BME280;56781;42.292;23.146;2023-04-08T03:25:49;95680.41;;;3.11;100.00
69570;BME280;56781;42.292;23.146;2023-04-08T03:28:17;95666.53;;;2.99;100.00
69570;BME280;56781;42.292;23.146;2023-04-08T03:30:44;95673.03;;;3.14;100.00
69570;BME280;56781;42.292;23.146;2023-04-08T03:33:11;95669.94;;;3.22;100.00
69570;BME280;56781;42.292;23.146;2023-04-08T03:35:38;95663.50;;;3.13;100.00
69570;BME280;56781;42.292;23.146;2023-04-08T03:38:06;95671.44;;;3.13;100.00
69570;BME280;56781;42.292;23.146;2023-04-08T03:40:33;95667.38;;;3.32;100.00
69570;BME280;56781;42.292;23.146;2023-04-08T03:43:00;95675.06;;;3.33;100.00
69570;BME280;56781;42.292;23.146;2023-04-08T03:45:27;95658.84;;;3.25;100.00
69570;BME280;56781;42.292;23.146;2023-04-08T03:47:55;95682.16;;;3.28;100.00
69570;BME280;56781;42.292;23.146;2023-04-08T03:50:22;95685.25;;;3.20;100.00
69570;BME280;56781;42.292;23.146;2023-04-08T03:52:49;95698.03;;;3.28;100.00
69570;BME280;56781;42.292;23.146;2023-04-08T03:55:16;95677.88;;;3.22;100.00
69570;BME280;56781;42.292;23.146;2023-04-08T03:57:43;95676.56;;;3.24;99.86
69570;BME280;56781;42.292;23.146;2023-04-08T04:00:12;95689.78;;;3.24;99.87
69570;BME280;56781;42.292;23.146;2023-04-08T04:02:39;95701.34;;;3.40;99.66
69570;BME280;56781;42.292;23.146;2023-04-08T04:05:06;95673.16;;;3.02;100.00
69570;BME280;56781;42.292;23.146;2023-04-08T04:07:34;95675.44;;;2.93;100.00
69570;BME280;56781;42.292;23.146;2023-04-08T04:10:01;95670.75;;;3.00;100.00
69570;BME280;56781;42.292;23.146;2023-04-08T04:12:28;95690.94;;;3.33;100.00
69570;BME280;56781;42.292;23.146;2023-04-08T04:14:55;95703.69;;;3.37;98.87
69570;BME280;56781;42.292;23.146;2023-04-08T04:17:22;95666.19;;;3.18;99.28
69570;BME280;56781;42.292;23.146;2023-04-08T04:19:49;95672.91;;;3.30;99.14
69570;BME280;56781;42.292;23.146;2023-04-08T04:22:17;95674.09;;;3.40;96.90
69570;BME280;56781;42.292;23.146;2023-04-08T04:24:47;95686.25;;;3.68;95.60
69570;BME280;56781;42.292;23.146;2023-04-08T04:27:15;95677.00;;;3.70;94.73
69570;BME280;56781;42.292;23.146;2023-04-08T04:29:43;95659.44;;;3.59;94.51
69570;BME280;56781;42.292;23.146;2023-04-08T04:32:10;95675.13;;;3.71;95.13
69570;BME280;56781;42.292;23.146;2023-04-08T04:34:37;95673.09;;;3.78;96.44
69570;BME280;56781;42.292;23.146;2023-04-08T04:37:04;95682.66;;;3.84;97.84
69570;BME280;56781;42.292;23.146;2023-04-08T04:39:32;95683.63;;;3.73;100.00
69570;BME280;56781;42.292;23.146;2023-04-08T04:41:59;95684.25;;;3.85;100.00
69570;BME280;56781;42.292;23.146;2023-04-08T04:44:26;95677.09;;;3.81;100.00
69570;BME280;56781;42.292;23.146;2023-04-08T04:46:53;95679.00;;;3.90;99.48
69570;BME280;56781;42.292;23.146;2023-04-08T04:49:20;95672.22;;;4.05;98.92
69570;BME280;56781;42.292;23.146;2023-04-08T04:51:47;95695.72;;;4.33;98.22
69570;BME280;56781;42.292;23.146;2023-04-08T04:54:15;95681.72;;;4.38;95.34
69570;BME280;56781;42.292;23.146;2023-04-08T04:56:42;95675.09;;;4.40;91.22
69570;BME280;56781;42.292;23.146;2023-04-08T04:59:09;95681.81;;;4.58;89.67
69570;BME280;56781;42.292;23.146;2023-04-08T05:01:36;95683.94;;;4.56;90.10
69570;BME280;56781;42.292;23.146;2023-04-08T05:04:03;95703.31;;;4.62;89.79
69570;BME280;56781;42.292;23.146;2023-04-08T05:06:31;95690.03;;;4.57;89.95
69570;BME280;56781;42.292;23.146;2023-04-08T05:08:58;95690.59;;;4.64;89.93
69570;BME280;56781;42.292;23.146;2023-04-08T05:11:25;95685.53;;;4.57;89.95
69570;BME280;56781;42.292;23.146;2023-04-08T05:13:52;95676.88;;;4.77;88.25
69570;BME280;56781;42.292;23.146;2023-04-08T05:16:19;95676.94;;;4.93;88.07
69570;BME280;56781;42.292;23.146;2023-04-08T05:18:46;95673.84;;;5.21;86.29
69570;BME280;56781;42.292;23.146;2023-04-08T05:21:14;95669.16;;;5.85;83.97
69570;BME280;56781;42.292;23.146;2023-04-08T05:23:41;95677.88;;;6.57;80.45
69570;BME280;56781;42.292;23.146;2023-04-08T05:26:08;95678.00;;;6.91;77.96
69570;BME280;56781;42.292;23.146;2023-04-08T05:28:35;95688.19;;;6.69;78.28
69570;BME280;56781;42.292;23.146;2023-04-08T05:31:03;95685.81;;;7.27;77.72
69570;BME280;56781;42.292;23.146;2023-04-08T05:33:30;95674.91;;;7.68;74.81
69570;BME280;56781;42.292;23.146;2023-04-08T05:35:57;95679.19;;;8.03;72.58
69570;BME280;56781;42.292;23.146;2023-04-08T05:38:24;95677.16;;;7.55;74.08
69570;BME280;56781;42.292;23.146;2023-04-08T05:40:51;95698.06;;;8.12;70.10
69570;BME280;56781;42.292;23.146;2023-04-08T05:43:18;95680.66;;;7.90;72.13
69570;BME280;56781;42.292;23.146;2023-04-08T05:45:46;95674.75;;;7.54;70.79
69570;BME280;56781;42.292;23.146;2023-04-08T05:48:13;95684.53;;;8.32;69.64
69570;BME280;56781;42.292;23.146;2023-04-08T05:50:40;95685.25;;;8.72;67.28
69570;BME280;56781;42.292;23.146;2023-04-08T05:53:08;95676.81;;;8.60;67.26
69570;BME280;56781;42.292;23.146;2023-04-08T05:55:35;95668.97;;;9.36;65.21
69570;BME280;56781;42.292;23.146;2023-04-08T05:58:02;95670.28;;;9.19;64.85
69570;BME280;56781;42.292;23.146;2023-04-08T06:00:29;95665.28;;;10.54;61.03
69570;BME280;56781;42.292;23.146;2023-04-08T06:02:57;95667.38;;;10.71;60.63
69570;BME280;56781;42.292;23.146;2023-04-08T06:05:24;95691.09;;;10.77;59.43
69570;BME280;56781;42.292;23.146;2023-04-08T06:07:51;95672.03;;;10.51;59.38
69570;BME280;56781;42.292;23.146;2023-04-08T06:10:18;95690.28;;;11.04;59.80
69570;BME280;56781;42.292;23.146;2023-04-08T06:12:45;95662.50;;;11.28;59.13
69570;BME280;56781;42.292;23.146;2023-04-08T06:15:12;95667.28;;;11.03;58.42
69570;BME280;56781;42.292;23.146;2023-04-08T06:17:39;95671.91;;;12.12;56.39
69570;BME280;56781;42.292;23.146;2023-04-08T06:20:07;95660.59;;;12.24;54.74
69570;BME280;56781;42.292;23.146;2023-04-08T06:22:37;95669.19;;;11.53;55.30
69570;BME280;56781;42.292;23.146;2023-04-08T06:25:04;95697.56;;;10.11;59.60
69570;BME280;56781;42.292;23.146;2023-04-08T06:27:31;95674.41;;;9.30;62.70
69570;BME280;56781;42.292;23.146;2023-04-08T06:29:59;95676.88;;;10.16;60.37
69570;BME280;56781;42.292;23.146;2023-04-08T06:32:26;95674.41;;;10.67;58.03
69570;BME280;56781;42.292;23.146;2023-04-08T06:34:53;95666.47;;;9.63;60.19
69570;BME280;56781;42.292;23.146;2023-04-08T06:37:20;95701.75;;;8.98;62.96
69570;BME280;56781;42.292;23.146;2023-04-08T06:39:47;95672.38;;;8.98;64.48
69570;BME280;56781;42.292;23.146;2023-04-08T06:42:14;95670.22;;;9.62;64.08
69570;BME280;56781;42.292;23.146;2023-04-08T06:44:41;95663.13;;;9.33;62.62
69570;BME280;56781;42.292;23.146;2023-04-08T06:47:08;95652.63;;;9.94;61.36
69570;BME280;56781;42.292;23.146;2023-04-08T06:49:36;95675.50;;;10.19;58.04
69570;BME280;56781;42.292;23.146;2023-04-08T06:52:03;95687.94;;;10.75;58.22
69570;BME280;56781;42.292;23.146;2023-04-08T06:54:32;95687.03;;;11.07;53.10
69570;BME280;56781;42.292;23.146;2023-04-08T06:56:59;95677.00;;;9.92;55.50
69570;BME280;56781;42.292;23.146;2023-04-08T06:59:26;95676.63;;;9.99;56.16
69570;BME280;56781;42.292;23.146;2023-04-08T07:01:53;95670.66;;;9.69;55.90
69570;BME280;56781;42.292;23.146;2023-04-08T07:04:21;95677.38;;;9.86;58.50
69570;BME280;56781;42.292;23.146;2023-04-08T07:06:48;95701.31;;;9.58;57.45
69570;BME280;56781;42.292;23.146;2023-04-08T07:09:15;95669.63;;;10.36;55.16
69570;BME280;56781;42.292;23.146;2023-04-08T07:11:42;95688.09;;;11.34;52.45
69570;BME280;56781;42.292;23.146;2023-04-08T07:14:10;95678.41;;;11.61;51.31
69570;BME280;56781;42.292;23.146;2023-04-08T07:16:37;95704.38;;;12.24;50.07
69570;BME280;56781;42.292;23.146;2023-04-08T07:19:04;95680.75;;;11.26;50.68
69570;BME280;56781;42.292;23.146;2023-04-08T07:21:32;95692.81;;;11.65;52.51
69570;BME280;56781;42.292;23.146;2023-04-08T07:23:59;95706.91;;;11.70;49.40
69570;BME280;56781;42.292;23.146;2023-04-08T07:26:26;95689.41;;;11.09;51.69
69570;BME280;56781;42.292;23.146;2023-04-08T07:28:54;95705.78;;;11.21;53.31
69570;BME280;56781;42.292;23.146;2023-04-08T07:31:21;95690.38;;;10.72;52.68
69570;BME280;56781;42.292;23.146;2023-04-08T07:33:48;95714.91;;;11.06;54.06
69570;BME280;56781;42.292;23.146;2023-04-08T07:36:15;95693.28;;;11.03;50.58
69570;BME280;56781;42.292;23.146;2023-04-08T07:38:44;95687.16;;;10.89;50.03
69570;BME280;56781;42.292;23.146;2023-04-08T07:41:11;95702.41;;;10.88;50.49
69570;BME280;56781;42.292;23.146;2023-04-08T07:43:38;95701.69;;;10.82;50.52
69570;BME280;56781;42.292;23.146;2023-04-08T07:46:05;95696.06;;;10.84;54.30
69570;BME280;56781;42.292;23.146;2023-04-08T07:48:34;95695.47;;;11.01;49.35
69570;BME280;56781;42.292;23.146;2023-04-08T07:51:08;95698.47;;;10.99;48.52
69570;BME280;56781;42.292;23.146;2023-04-08T07:53:38;95717.81;;;11.24;48.51
69570;BME280;56781;42.292;23.146;2023-04-08T07:56:13;95726.19;;;11.59;50.05
69570;BME280;56781;42.292;23.146;2023-04-08T07:58:41;95698.19;;;11.65;47.31
69570;BME280;56781;42.292;23.146;2023-04-08T08:01:19;95699.03;;;11.24;49.21
69570;BME280;56781;42.292;23.146;2023-04-08T08:03:47;95693.78;;;11.69;47.21
69570;BME280;56781;42.292;23.146;2023-04-08T08:06:15;95686.31;;;11.43;46.90
69570;BME280;56781;42.292;23.146;2023-04-08T08:08:42;95692.59;;;12.65;46.22
69570;BME280;56781;42.292;23.146;2023-04-08T08:11:10;95686.94;;;13.90;43.74
69570;BME280;56781;42.292;23.146;2023-04-08T08:13:37;95717.56;;;14.76;41.46
69570;BME280;56781;42.292;23.146;2023-04-08T08:16:04;95720.06;;;15.28;40.69
69570;BME280;56781;42.292;23.146;2023-04-08T08:18:34;95682.13;;;14.30;41.55
69570;BME280;56781;42.292;23.146;2023-04-08T08:21:02;95705.97;;;15.31;38.75
69570;BME280;56781;42.292;23.146;2023-04-08T08:23:29;95722.50;;;14.82;41.57
69570;BME280;56781;42.292;23.146;2023-04-08T08:26:01;95706.31;;;14.82;41.12
69570;BME280;56781;42.292;23.146;2023-04-08T08:28:28;95722.69;;;14.69;39.77
69570;BME280;56781;42.292;23.146;2023-04-08T08:30:56;95691.50;;;14.97;38.52
69570;BME280;56781;42.292;23.146;2023-04-08T08:33:24;95690.34;;;15.66;40.53
69570;BME280;56781;42.292;23.146;2023-04-08T08:35:51;95689.63;;;15.27;37.56
69570;BME280;56781;42.292;23.146;2023-04-08T08:38:18;95689.38;;;15.41;38.85
69570;BME280;56781;42.292;23.146;2023-04-08T08:40:45;95673.13;;;16.01;38.44
69570;BME280;56781;42.292;23.146;2023-04-08T08:43:13;95684.78;;;15.92;39.54
69570;BME280;56781;42.292;23.146;2023-04-08T08:45:41;95682.88;;;16.14;39.42
69570;BME280;56781;42.292;23.146;2023-04-08T08:48:08;95682.53;;;15.44;38.94
69570;BME280;56781;42.292;23.146;2023-04-08T08:50:35;95702.03;;;16.21;38.47
69570;BME280;56781;42.292;23.146;2023-04-08T08:53:03;95674.72;;;15.81;38.93
69570;BME280;56781;42.292;23.146;2023-04-08T08:55:31;95671.75;;;15.73;40.64
69570;BME280;56781;42.292;23.146;2023-04-08T08:58:19;95682.09;;;15.42;39.61
69570;BME280;56781;42.292;23.146;2023-04-08T09:00:46;95680.19;;;15.42;40.23
69570;BME280;56781;42.292;23.146;2023-04-08T09:03:24;95677.66;;;15.67;39.62
69570;BME280;56781;42.292;23.146;2023-04-08T09:05:57;95666.09;;;14.51;41.54
69570;BME280;56781;42.292;23.146;2023-04-08T09:08:37;95676.38;;;14.75;45.58
69570;BME280;56781;42.292;23.146;2023-04-08T09:11:13;95684.41;;;13.85;44.42
69570;BME280;56781;42.292;23.146;2023-04-08T09:13:41;95673.78;;;14.06;41.81
69570;BME280;56781;42.292;23.146;2023-04-08T09:16:11;95662.72;;;13.99;41.15
69570;BME280;56781;42.292;23.146;2023-04-08T09:18:39;95665.53;;;14.28;40.85
69570;BME280;56781;42.292;23.146;2023-04-08T09:21:11;95666.66;;;14.01;41.98
69570;BME280;56781;42.292;23.146;2023-04-08T09:23:49;95660.28;;;14.96;39.72
69570;BME280;56781;42.292;23.146;2023-04-08T09:26:19;95659.50;;;15.76;43.58
69570;BME280;56781;42.292;23.146;2023-04-08T09:29:02;95652.63;;;15.28;40.60
69570;BME280;56781;42.292;23.146;2023-04-08T09:31:53;95652.69;;;14.34;43.47
69570;BME280;56781;42.292;23.146;2023-04-08T09:34:22;95661.09;;;14.88;43.56
69570;BME280;56781;42.292;23.146;2023-04-08T09:36:51;95653.28;;;14.48;46.34
69570;BME280;56781;42.292;23.146;2023-04-08T09:39:18;95647.44;;;14.37;42.12
69570;BME280;56781;42.292;23.146;2023-04-08T09:41:50;95643.84;;;13.38;44.53
69570;BME280;56781;42.292;23.146;2023-04-08T09:44:19;95676.78;;;14.22;45.47
69570;BME280;56781;42.292;23.146;2023-04-08T09:49:28;95644.75;;;15.52;40.73
69570;BME280;56781;42.292;23.146;2023-04-08T09:52:43;95641.94;;;14.16;42.04
69570;BME280;56781;42.292;23.146;2023-04-08T09:55:03;95641.97;;;13.47;42.33
69570;BME280;56781;42.292;23.146;2023-04-08T09:57:39;95628.66;;;14.11;44.07
69570;BME280;56781;42.292;23.146;2023-04-08T10:00:13;95648.25;;;13.25;44.13
69570;BME280;56781;42.292;23.146;2023-04-08T10:02:54;95630.81;;;12.65;46.87
69570;BME280;56781;42.292;23.146;2023-04-08T10:05:23;95621.78;;;13.09;44.14
69570;BME280;56781;42.292;23.146;2023-04-08T10:07:51;95645.75;;;14.15;46.61
69570;BME280;56781;42.292;23.146;2023-04-08T10:10:19;95628.00;;;15.08;44.22
69570;BME280;56781;42.292;23.146;2023-04-08T10:12:47;95609.66;;;15.52;41.89
69570;BME280;56781;42.292;23.146;2023-04-08T10:15:31;95618.69;;;14.68;41.04
69570;BME280;56781;42.292;23.146;2023-04-08T10:23:05;95606.63;;;14.74;39.44
69570;BME280;56781;42.292;23.146;2023-04-08T10:25:34;95609.09;;;15.17;39.24
69570;BME280;56781;42.292;23.146;2023-04-08T10:30:54;95623.97;;;14.55;40.15
69570;BME280;56781;42.292;23.146;2023-04-08T10:33:32;95608.19;;;14.28;45.38
69570;BME280;56781;42.292;23.146;2023-04-08T10:36:09;95620.53;;;14.29;44.43
69570;BME280;56781;42.292;23.146;2023-04-08T10:38:38;95600.47;;;14.00;43.50
69570;BME280;56781;42.292;23.146;2023-04-08T10:41:05;95600.84;;;13.55;46.74
69570;BME280;56781;42.292;23.146;2023-04-08T10:43:33;95595.69;;;14.70;41.87
69570;BME280;56781;42.292;23.146;2023-04-08T10:46:01;95597.09;;;15.06;41.70
69570;BME280;56781;42.292;23.146;2023-04-08T10:48:28;95603.94;;;15.75;42.88
69570;BME280;56781;42.292;23.146;2023-04-08T10:50:56;95600.16;;;15.25;39.68
69570;BME280;56781;42.292;23.146;2023-04-08T10:53:30;95597.50;;;14.87;40.21
69570;BME280;56781;42.292;23.146;2023-04-08T10:56:11;95584.31;;;14.94;41.32
69570;BME280;56781;42.292;23.146;2023-04-08T10:58:51;95596.06;;;15.19;39.20
69570;BME280;56781;42.292;23.146;2023-04-08T11:01:18;95585.16;;;14.86;39.28
69570;BME280;56781;42.292;23.146;2023-04-08T11:03:46;95584.13;;;14.70;42.24
69570;BME280;56781;42.292;23.146;2023-04-08T11:06:14;95584.56;;;14.80;41.92
69570;BME280;56781;42.292;23.146;2023-04-08T11:08:41;95573.78;;;15.10;40.00
69570;BME280;56781;42.292;23.146;2023-04-08T11:11:10;95565.31;;;15.20;39.09
69570;BME280;56781;42.292;23.146;2023-04-08T11:13:42;95557.06;;;15.59;38.81
69570;BME280;56781;42.292;23.146;2023-04-08T11:16:20;95548.31;;;15.20;40.56
69570;BME280;56781;42.292;23.146;2023-04-08T11:18:49;95534.31;;;14.76;41.36
69570;BME280;56781;42.292;23.146;2023-04-08T11:21:17;95564.03;;;15.18;40.48
69570;BME280;56781;42.292;23.146;2023-04-08T11:23:44;95563.47;;;14.82;40.72
69570;BME280;56781;42.292;23.146;2023-04-08T11:26:12;95541.69;;;15.92;38.89
69570;BME280;56781;42.292;23.146;2023-04-08T11:28:41;95558.22;;;16.49;36.77
69570;BME280;56781;42.292;23.146;2023-04-08T11:31:09;95542.81;;;15.91;36.11
69570;BME280;56781;42.292;23.146;2023-04-08T11:33:37;95547.91;;;15.51;39.05
69570;BME280;56781;42.292;23.146;2023-04-08T11:36:11;95554.44;;;15.29;40.09
69570;BME280;56781;42.292;23.146;2023-04-08T11:38:39;95553.31;;;15.51;39.57
69570;BME280;56781;42.292;23.146;2023-04-08T11:41:07;95555.69;;;15.32;40.04
69570;BME280;56781;42.292;23.146;2023-04-08T11:43:35;95557.25;;;15.33;40.57
69570;BME280;56781;42.292;23.146;2023-04-08T11:46:10;95539.38;;;15.28;41.58
69570;BME280;56781;42.292;23.146;2023-04-08T11:48:38;95563.16;;;15.68;37.71
69570;BME280;56781;42.292;23.146;2023-04-08T11:51:06;95541.59;;;16.01;35.91
69570;BME280;56781;42.292;23.146;2023-04-08T11:53:38;95544.47;;;16.42;36.91
69570;BME280;56781;42.292;23.146;2023-04-08T11:56:17;95535.09;;;16.14;38.20
69570;BME280;56781;42.292;23.146;2023-04-08T11:58:44;95548.75;;;15.85;37.58
69570;BME280;56781;42.292;23.146;2023-04-08T12:01:12;95532.81;;;14.66;37.54
69570;BME280;56781;42.292;23.146;2023-04-08T12:03:55;95514.09;;;15.54;39.34
69570;BME280;56781;42.292;23.146;2023-04-08T12:06:24;95525.78;;;16.24;36.60
69570;BME280;56781;42.292;23.146;2023-04-08T12:08:54;95528.16;;;15.80;37.47
69570;BME280;56781;42.292;23.146;2023-04-08T12:11:22;95515.25;;;15.65;39.63
69570;BME280;56781;42.292;23.146;2023-04-08T12:13:49;95504.19;;;15.58;39.36
69570;BME280;56781;42.292;23.146;2023-04-08T12:16:17;95521.00;;;15.00;40.81
69570;BME280;56781;42.292;23.146;2023-04-08T12:18:45;95544.16;;;15.43;39.25
69570;BME280;56781;42.292;23.146;2023-04-08T12:21:12;95543.81;;;15.87;39.36
69570;BME280;56781;42.292;23.146;2023-04-08T12:23:39;95518.94;;;16.51;40.96
69570;BME280;56781;42.292;23.146;2023-04-08T12:26:07;95541.03;;;16.53;38.48
69570;BME280;56781;42.292;23.146;2023-04-08T12:28:34;95514.53;;;17.08;38.18
69570;BME280;56781;42.292;23.146;2023-04-08T12:31:02;95494.72;;;16.55;33.51
69570;BME280;56781;42.292;23.146;2023-04-08T12:33:30;95538.66;;;16.64;34.74
69570;BME280;56781;42.292;23.146;2023-04-08T12:35:57;95513.69;;;15.97;35.53
69570;BME280;56781;42.292;23.146;2023-04-08T12:38:25;95499.63;;;15.37;35.76
69570;BME280;56781;42.292;23.146;2023-04-08T12:40:53;95500.63;;;15.33;37.93
69570;BME280;56781;42.292;23.146;2023-04-08T12:43:21;95494.78;;;15.10;38.04
69570;BME280;56781;42.292;23.146;2023-04-08T12:45:49;95510.63;;;14.90;38.94
69570;BME280;56781;42.292;23.146;2023-04-08T12:48:17;95501.53;;;14.74;39.03
69570;BME280;56781;42.292;23.146;2023-04-08T12:50:45;95499.22;;;14.84;39.80
69570;BME280;56781;42.292;23.146;2023-04-08T12:53:12;95489.06;;;14.90;41.28
69570;BME280;56781;42.292;23.146;2023-04-08T12:55:39;95487.13;;;14.70;40.10
69570;BME280;56781;42.292;23.146;2023-04-08T12:58:09;95510.34;;;14.83;39.30
69570;BME280;56781;42.292;23.146;2023-04-08T13:00:36;95476.72;;;14.59;39.85
69570;BME280;56781;42.292;23.146;2023-04-08T13:03:04;95512.66;;;14.93;40.94
69570;BME280;56781;42.292;23.146;2023-04-08T13:05:32;95475.97;;;14.80;38.41
69570;BME280;56781;42.292;23.146;2023-04-08T13:08:09;95487.50;;;14.59;37.54
69570;BME280;56781;42.292;23.146;2023-04-08T13:10:40;95484.03;;;14.59;38.94
69570;BME280;56781;42.292;23.146;2023-04-08T13:13:08;95482.88;;;14.69;40.74
69570;BME280;56781;42.292;23.146;2023-04-08T13:15:35;95485.81;;;14.55;40.12